Time;durP1;ratioP1;P1;durP2;ratioP2;P2;SDS_P1;SDS_P2;PMS_P1;PMS_P2;Temp;Humidity;BMP_temperature;BMP_pressure;BME280_temperature;BME280_humidity;BME280_pressure;Samples;Min_cycle;Max_cycle;Signal;HPM_P1;HPM_P2
2023/11/12 00:01:48;;;;;;;23.10;16.40;;;;;;;-128.00;-1.00;-1.00;106888;1251;1002456;-59
2023/11/12 00:04:17;;;;;;;28.20;21.10;;;;;;;-128.00;-1.00;-1.00;106830;1253;1002364;-60
2023/11/12 00:06:45;;;;;;;40.20;24.10;;;;;;;-128.00;-1.00;-1.00;106721;1253;1010147;-59
2023/11/12 00:09:12;;;;;;;40.40;30.00;;;;;;;-128.00;-1.00;-1.00;106792;1253;1002476;-62
2023/11/12 00:11:40;;;;;;;38.30;27.30;;;;;;;-128.00;-1.00;-1.00;106826;1253;1002160;-60
2023/11/12 00:14:08;;;;;;;43.00;28.00;;;;;;;-128.00;-1.00;-1.00;106573;1252;1002432;-59
2023/11/12 00:16:35;;;;;;;44.30;28.30;;;;;;;-128.00;-1.00;-1.00;106743;1256;1002871;-61
2023/11/12 00:19:04;;;;;;;37.10;23.70;;;;;;;-128.00;-1.00;-1.00;106588;1253;1002622;-61
2023/11/12 00:21:31;;;;;;;30.50;17.10;;;;;;;-128.00;-1.00;-1.00;106751;1253;1011551;-59
2023/11/12 00:23:59;;;;;;;22.60;13.70;;;;;;;-128.00;-1.00;-1.00;106876;1252;1002559;-60
2023/11/12 00:26:28;;;;;;;26.00;16.50;;;;;;;-128.00;-1.00;-1.00;106781;1252;1012971;-59
2023/11/12 00:28:56;;;;;;;20.00;13.40;;;;;;;-128.00;-1.00;-1.00;106497;1251;1013308;-60
2023/11/12 00:31:23;;;;;;;24.00;15.20;;;;;;;-128.00;-1.00;-1.00;106781;1251;1002165;-61
2023/11/12 00:33:51;;;;;;;18.80;13.10;;;;;;;-128.00;-1.00;-1.00;106812;1251;1001960;-61
2023/11/12 00:36:19;;;;;;;20.50;14.10;;;;;;;-128.00;-1.00;-1.00;106674;1251;1002347;-58
2023/11/12 00:38:47;;;;;;;17.70;13.50;;;;;;;-128.00;-1.00;-1.00;106840;1251;1002214;-58
2023/11/12 00:41:18;;;;;;;21.70;14.80;;;;;;;-128.00;-1.00;-1.00;106758;1251;1002327;-60
2023/11/12 00:43:46;;;;;;;17.90;13.60;;;;;;;-128.00;-1.00;-1.00;106924;1251;1010904;-62
2023/11/12 00:46:16;;;;;;;21.30;14.00;;;;;;;-128.00;-1.00;-1.00;106812;1251;1010277;-59
2023/11/12 00:48:44;;;;;;;17.30;12.30;;;;;;;-128.00;-1.00;-1.00;106822;1252;1002159;-58
2023/11/12 00:51:11;;;;;;;20.50;14.30;;;;;;;-128.00;-1.00;-1.00;106779;1253;1002760;-58
2023/11/12 00:53:39;;;;;;;16.90;12.60;;;;;;;-128.00;-1.00;-1.00;106844;1251;1002505;-58
2023/11/12 00:56:07;;;;;;;21.40;15.70;;;;;;;-128.00;-1.00;-1.00;106854;1251;1002407;-58
2023/11/12 00:58:35;;;;;;;;;;;;;;;-128.00;-1.00;-1.00;106499;1254;1010356;-57
2023/11/12 01:01:04;;;;;;;21.80;13.90;;;;;;;-128.00;-1.00;-1.00;106584;1254;1002282;-58
2023/11/12 01:03:32;;;;;;;19.00;13.90;;;;;;;-128.00;-1.00;-1.00;106527;1254;1012829;-58
2023/11/12 01:06:02;;;;;;;16.60;12.50;;;;;;;-128.00;-1.00;-1.00;106563;1254;1012817;-58
2023/11/12 01:08:30;;;;;;;10.80;9.30;;;;;;;-128.00;-1.00;-1.00;106524;1254;1009782;-58
2023/11/12 01:10:58;;;;;;;26.40;23.90;;;;;;;-128.00;-1.00;-1.00;106465;1254;1002096;-59
2023/11/12 01:13:26;;;;;;;40.50;33.70;;;;;;;-128.00;-1.00;-1.00;106557;1258;1013112;-61
2023/11/12 01:15:55;;;;;;;31.60;26.50;;;;;;;-128.00;-1.00;-1.00;106445;1257;1012892;-60
2023/11/12 01:18:24;;;;;;;35.40;26.60;;;;;;;-128.00;-1.00;-1.00;106440;1257;1012672;-59
2023/11/12 01:20:51;;;;;;;23.20;16.60;;;;;;;-128.00;-1.00;-1.00;106346;1257;1002377;-60
2023/11/12 01:23:19;;;;;;;16.90;13.50;;;;;;;-128.00;-1.00;-1.00;106302;1257;1002300;-59
2023/11/12 01:25:47;;;;;;;26.40;22.90;;;;;;;-128.00;-1.00;-1.00;106402;1258;1002396;-59
2023/11/12 01:28:15;;;;;;;24.90;22.40;;;;;;;-128.00;-1.00;-1.00;106271;1257;1014388;-58
2023/11/12 01:30:42;;;;;;;9.00;8.00;;;;;;;-128.00;-1.00;-1.00;106602;1253;1002517;-62
2023/11/12 01:33:10;;;;;;;11.40;10.20;;;;;;;-128.00;-1.00;-1.00;106541;1253;1002414;-61
2023/11/12 01:35:38;;;;;;;10.90;9.80;;;;;;;-128.00;-1.00;-1.00;106667;1253;1002706;-61
2023/11/12 01:38:07;;;;;;;15.60;14.10;;;;;;;-128.00;-1.00;-1.00;106547;1253;1002327;-59
2023/11/12 01:40:39;;;;;;;10.70;9.10;;;;;;;-128.00;-1.00;-1.00;106655;1253;1012140;-61
2023/11/12 01:43:07;;;;;;;28.40;22.80;;;;;;;-128.00;-1.00;-1.00;106725;1253;1012919;-62
2023/11/12 01:45:34;;;;;;;74.70;46.60;;;;;;;-128.00;-1.00;-1.00;106508;1253;1002561;-58
2023/11/12 01:48:03;;;;;;;76.80;50.00;;;;;;;-128.00;-1.00;-1.00;106949;1250;1002278;-58
2023/11/12 01:50:31;;;;;;;55.90;41.60;;;;;;;-128.00;-1.00;-1.00;106782;1251;1013292;-59
2023/11/12 01:52:58;;;;;;;19.20;16.50;;;;;;;-128.00;-1.00;-1.00;106755;1257;1002580;-59
2023/11/12 01:55:26;;;;;;;9.40;8.50;;;;;;;-128.00;-1.00;-1.00;106939;1250;1002321;-60
2023/11/12 01:57:53;;;;;;;9.30;8.20;;;;;;;-128.00;-1.00;-1.00;106711;1250;1002315;-59
2023/11/12 02:00:22;;;;;;;10.00;8.60;;;;;;;-128.00;-1.00;-1.00;106467;1250;1002501;-58
2023/11/12 02:02:51;;;;;;;9.90;8.90;;;;;;;-128.00;-1.00;-1.00;106781;1250;1012245;-57
2023/11/12 02:05:20;;;;;;;10.80;9.80;;;;;;;-128.00;-1.00;-1.00;106708;1253;1013157;-58
2023/11/12 02:07:49;;;;;;;22.60;20.10;;;;;;;-128.00;-1.00;-1.00;106650;1253;1012631;-58
2023/11/12 02:10:17;;;;;;;18.20;16.40;;;;;;;-128.00;-1.00;-1.00;106623;1252;1009365;-58
2023/11/12 02:12:45;;;;;;;28.00;23.30;;;;;;;-128.00;-1.00;-1.00;106748;1253;1002461;-58
2023/11/12 02:15:14;;;;;;;24.40;20.10;;;;;;;-128.00;-1.00;-1.00;106806;1253;1012637;-58
2023/11/12 02:17:47;;;;;;;19.80;14.80;;;;;;;-128.00;-1.00;-1.00;106621;1255;1012217;-58
2023/11/12 02:20:14;;;;;;;37.90;28.50;;;;;;;-128.00;-1.00;-1.00;106625;1253;1013411;-58
2023/11/12 02:22:43;;;;;;;29.10;19.30;;;;;;;-128.00;-1.00;-1.00;106777;1253;1002895;-58
2023/11/12 02:25:13;;;;;;;69.00;45.50;;;;;;;-128.00;-1.00;-1.00;106442;1256;1011673;-57
2023/11/12 02:27:41;;;;;;;26.00;22.30;;;;;;;-128.00;-1.00;-1.00;106455;1257;1012661;-57
2023/11/12 02:30:09;;;;;;;12.10;10.90;;;;;;;-128.00;-1.00;-1.00;106542;1257;1002043;-59
2023/11/12 02:32:37;;;;;;;10.40;9.30;;;;;;;-128.00;-1.00;-1.00;106361;1256;1013549;-61
2023/11/12 02:35:07;;;;;;;14.10;10.40;;;;;;;-128.00;-1.00;-1.00;106392;1256;1002463;-58
2023/11/12 02:37:35;;;;;;;19.80;15.40;;;;;;;-128.00;-1.00;-1.00;106404;1254;1010959;-60
2023/11/12 02:40:03;;;;;;;11.30;9.50;;;;;;;-128.00;-1.00;-1.00;106707;1254;1001724;-59
2023/11/12 02:42:33;;;;;;;34.80;25.80;;;;;;;-128.00;-1.00;-1.00;106456;1259;1013595;-57
2023/11/12 02:45:00;;;;;;;19.80;14.60;;;;;;;-128.00;-1.00;-1.00;106673;1254;1012772;-58
2023/11/12 02:47:28;;;;;;;20.10;18.20;;;;;;;-128.00;-1.00;-1.00;106707;1254;1002293;-57
2023/11/12 02:50:03;;;;;;;10.00;7.20;;;;;;;-128.00;-1.00;-1.00;106656;1254;1002568;-58
2023/11/12 02:52:32;;;;;;;13.10;11.90;;;;;;;-128.00;-1.00;-1.00;106491;1254;1012542;-57
2023/11/12 02:54:59;;;;;;;;;;;;;;;-128.00;-1.00;-1.00;106652;1254;1011864;-58
2023/11/12 02:57:27;;;;;;;18.90;17.30;;;;;;;-128.00;-1.00;-1.00;106842;1252;1002514;-57
2023/11/12 02:59:55;;;;;;;11.70;10.70;;;;;;;-128.00;-1.00;-1.00;106789;1253;1002316;-58
2023/11/12 03:02:23;;;;;;;13.10;11.90;;;;;;;-128.00;-1.00;-1.00;106521;1253;1002296;-59
2023/11/12 03:04:50;;;;;;;17.80;16.20;;;;;;;-128.00;-1.00;-1.00;106797;1253;1002789;-60
2023/11/12 03:07:18;;;;;;;13.70;12.40;;;;;;;-128.00;-1.00;-1.00;106574;1253;1002268;-58
2023/11/12 03:09:47;;;;;;;7.70;6.90;;;;;;;-128.00;-1.00;-1.00;106525;1253;1012313;-59
2023/11/12 03:12:15;;;;;;;6.80;6.10;;;;;;;-128.00;-1.00;-1.00;106737;1253;1010737;-62
2023/11/12 03:14:43;;;;;;;10.30;9.10;;;;;;;-128.00;-1.00;-1.00;106741;1253;1001939;-58
2023/11/12 03:17:10;;;;;;;10.90;9.70;;;;;;;-128.00;-1.00;-1.00;106791;1253;1002220;-59
2023/11/12 03:19:38;;;;;;;6.80;6.20;;;;;;;-128.00;-1.00;-1.00;106594;1253;1002225;-58
2023/11/12 03:22:08;;;;;;;8.70;7.30;;;;;;;-128.00;-1.00;-1.00;106752;1253;1002255;-56
2023/11/12 03:24:36;;;;;;;7.70;6.90;;;;;;;-128.00;-1.00;-1.00;106708;1253;1009167;-59
2023/11/12 03:27:04;;;;;;;6.70;6.10;;;;;;;-128.00;-1.00;-1.00;106652;1253;1002948;-57
2023/11/12 03:29:31;;;;;;;8.00;7.20;;;;;;;-128.00;-1.00;-1.00;106471;1253;1002309;-57
2023/11/12 03:31:59;;;;;;;9.80;8.50;;;;;;;-128.00;-1.00;-1.00;106824;1253;1002299;-57
2023/11/12 03:34:27;;;;;;;11.90;10.20;;;;;;;-128.00;-1.00;-1.00;106857;1253;1002217;-57
2023/11/12 03:36:54;;;;;;;21.70;19.80;;;;;;;-128.00;-1.00;-1.00;106816;1252;1009877;-57
2023/11/12 03:39:22;;;;;;;8.90;8.10;;;;;;;-128.00;-1.00;-1.00;106885;1253;1002146;-57
2023/11/12 03:41:50;;;;;;;27.60;25.20;;;;;;;-128.00;-1.00;-1.00;106874;1253;1001965;-59
2023/11/12 03:44:18;;;;;;;18.10;16.40;;;;;;;-128.00;-1.00;-1.00;106816;1253;1012583;-57
2023/11/12 03:46:46;;;;;;;21.70;19.60;;;;;;;-128.00;-1.00;-1.00;106711;1253;1002424;-57
2023/11/12 03:49:13;;;;;;;17.70;16.20;;;;;;;-128.00;-1.00;-1.00;106721;1253;1002238;-59
2023/11/12 03:51:41;;;;;;;35.00;31.50;;;;;;;-128.00;-1.00;-1.00;106572;1253;1002530;-58
2023/11/12 03:54:10;;;;;;;22.30;20.30;;;;;;;-128.00;-1.00;-1.00;106843;1253;1013127;-59
2023/11/12 03:56:37;;;;;;;;;;;;;;;-128.00;-1.00;-1.00;106871;1253;1012980;-57
2023/11/12 03:59:05;;;;;;;159.10;143.00;;;;;;;-128.00;-1.00;-1.00;106862;1253;1002540;-57
2023/11/12 04:01:33;;;;;;;25.90;23.10;;;;;;;-128.00;-1.00;-1.00;106771;1253;1002234;-57
2023/11/12 04:04:00;;;;;;;11.40;10.30;;;;;;;-128.00;-1.00;-1.00;106871;1253;1002468;-58
2023/11/12 04:06:28;;;;;;;8.30;7.60;;;;;;;-128.00;-1.00;-1.00;106713;1253;1002639;-56
2023/11/12 04:08:56;;;;;;;7.90;7.30;;;;;;;-128.00;-1.00;-1.00;106871;1256;1002417;-57
2023/11/12 04:11:23;;;;;;;7.10;6.50;;;;;;;-128.00;-1.00;-1.00;106962;1251;1002420;-58
2023/11/12 04:13:51;;;;;;;6.30;5.80;;;;;;;-128.00;-1.00;-1.00;106961;1253;1002783;-57
2023/11/12 04:16:19;;;;;;;5.50;5.10;;;;;;;-128.00;-1.00;-1.00;106671;1253;1002076;-57
2023/11/12 04:18:47;;;;;;;7.20;6.60;;;;;;;-128.00;-1.00;-1.00;106955;1253;1012095;-57
2023/11/12 04:21:14;;;;;;;7.50;6.60;;;;;;;-128.00;-1.00;-1.00;106778;1252;1002188;-58
2023/11/12 04:23:44;;;;;;;41.40;21.40;;;;;;;-128.00;-1.00;-1.00;107020;1252;1002072;-57
2023/11/12 04:26:12;;;;;;;5.40;5.00;;;;;;;-128.00;-1.00;-1.00;106924;1251;1010492;-58
2023/11/12 04:28:40;;;;;;;6.90;6.30;;;;;;;-128.00;-1.00;-1.00;106541;1252;1011748;-57
2023/11/12 04:31:08;;;;;;;6.60;6.10;;;;;;;-128.00;-1.00;-1.00;106962;1252;1002692;-58
2023/11/12 04:33:35;;;;;;;23.30;20.80;;;;;;;-128.00;-1.00;-1.00;106395;1251;1012269;-58
2023/11/12 04:36:03;;;;;;;8.90;8.20;;;;;;;-128.00;-1.00;-1.00;106910;1253;1002758;-57
2023/11/12 04:38:31;;;;;;;14.10;12.90;;;;;;;-128.00;-1.00;-1.00;106783;1252;1002231;-59
2023/11/12 04:40:58;;;;;;;5.00;4.60;;;;;;;-128.00;-1.00;-1.00;106949;1251;1002109;-58
2023/11/12 04:43:26;;;;;;;7.90;7.30;;;;;;;-128.00;-1.00;-1.00;106902;1253;1001925;-57
2023/11/12 04:45:53;;;;;;;6.40;5.90;;;;;;;-128.00;-1.00;-1.00;106938;1251;1002845;-57
2023/11/12 04:48:21;;;;;;;8.00;7.30;;;;;;;-128.00;-1.00;-1.00;106942;1253;1002466;-58
2023/11/12 04:50:48;;;;;;;33.00;30.00;;;;;;;-128.00;-1.00;-1.00;106796;1252;1002345;-58
2023/11/12 04:53:16;;;;;;;32.50;29.30;;;;;;;-128.00;-1.00;-1.00;106960;1251;1002114;-58
2023/11/12 04:55:44;;;;;;;45.80;37.80;;;;;;;-128.00;-1.00;-1.00;106937;1251;1001829;-57
2023/11/12 04:58:11;;;;;;;68.40;58.50;;;;;;;-128.00;-1.00;-1.00;107018;1252;1003178;-57
2023/11/12 05:00:40;;;;;;;88.30;75.40;;;;;;;-128.00;-1.00;-1.00;106961;1251;1002949;-58
2023/11/12 05:03:07;;;;;;;62.50;55.60;;;;;;;-128.00;-1.00;-1.00;106786;1253;1009857;-57
2023/11/12 05:05:36;;;;;;;21.90;19.70;;;;;;;-128.00;-1.00;-1.00;106943;1253;1002122;-59
2023/11/12 05:08:03;;;;;;;16.30;14.80;;;;;;;-128.00;-1.00;-1.00;106905;1250;1012992;-60
2023/11/12 05:10:31;;;;;;;16.80;15.20;;;;;;;-128.00;-1.00;-1.00;106937;1252;1002289;-60
2023/11/12 05:13:13;;;;;;;10.90;10.10;;;;;;;-128.00;-1.00;-1.00;106947;1250;1013781;-60
2023/11/12 05:15:41;;;;;;;7.10;6.60;;;;;;;-128.00;-1.00;-1.00;107001;1250;1010242;-58
2023/11/12 05:18:08;;;;;;;4.40;4.10;;;;;;;-128.00;-1.00;-1.00;106961;1250;1002323;-58
2023/11/12 05:20:36;;;;;;;4.70;4.40;;;;;;;-128.00;-1.00;-1.00;106820;1251;1002666;-59
2023/11/12 05:23:04;;;;;;;3.90;3.50;;;;;;;-128.00;-1.00;-1.00;106813;1250;1002147;-59
2023/11/12 05:25:31;;;;;;;3.10;2.90;;;;;;;-128.00;-1.00;-1.00;107009;1250;1002784;-58
2023/11/12 05:27:59;;;;;;;2.50;2.40;;;;;;;-128.00;-1.00;-1.00;107029;1250;1002489;-59
2023/11/12 05:30:27;;;;;;;2.90;2.70;;;;;;;-128.00;-1.00;-1.00;107018;1251;1002631;-59
2023/11/12 05:32:55;;;;;;;3.10;2.90;;;;;;;-128.00;-1.00;-1.00;107036;1251;1002651;-59
2023/11/12 05:35:22;;;;;;;3.10;2.90;;;;;;;-128.00;-1.00;-1.00;107013;1251;1002144;-58
2023/11/12 05:37:50;;;;;;;5.50;3.10;;;;;;;-128.00;-1.00;-1.00;107012;1250;1002357;-58
2023/11/12 05:40:17;;;;;;;2.90;2.70;;;;;;;-128.00;-1.00;-1.00;107059;1249;1002965;-61
2023/11/12 05:42:45;;;;;;;5.10;4.70;;;;;;;-128.00;-1.00;-1.00;106986;1250;1002099;-59
2023/11/12 05:45:13;;;;;;;4.70;4.10;;;;;;;-128.00;-1.00;-1.00;107029;1250;1002164;-59
2023/11/12 05:47:40;;;;;;;13.00;11.90;;;;;;;-128.00;-1.00;-1.00;106969;1250;1012942;-60
2023/11/12 05:50:08;;;;;;;9.10;8.30;;;;;;;-128.00;-1.00;-1.00;107042;1250;1002447;-58
2023/11/12 05:52:37;;;;;;;8.80;7.80;;;;;;;-128.00;-1.00;-1.00;107024;1249;1002400;-57
2023/11/12 05:55:05;;;;;;;8.50;7.80;;;;;;;-128.00;-1.00;-1.00;106995;1250;1011020;-58
2023/11/12 05:57:33;;;;;;;5.70;5.30;;;;;;;-128.00;-1.00;-1.00;106719;1250;1003736;-58
2023/11/12 06:00:00;;;;;;;7.00;5.80;;;;;;;-128.00;-1.00;-1.00;106884;1256;1002144;-59
2023/11/12 06:02:38;;;;;;;4.60;4.30;;;;;;;-128.00;-1.00;-1.00;106796;1250;1013087;-60
2023/11/12 06:05:06;;;;;;;2.80;2.70;;;;;;;-128.00;-1.00;-1.00;106751;1250;1010093;-58
2023/11/12 06:07:33;;;;;;;7.80;7.00;;;;;;;-128.00;-1.00;-1.00;106951;1250;1002158;-59
2023/11/12 06:10:01;;;;;;;13.70;12.40;;;;;;;-128.00;-1.00;-1.00;106957;1251;1002063;-61
2023/11/12 06:12:30;;;;;;;7.40;5.50;;;;;;;-128.00;-1.00;-1.00;106710;1250;1002871;-57
2023/11/12 06:14:57;;;;;;;8.00;7.40;;;;;;;-128.00;-1.00;-1.00;106960;1250;1012913;-58
2023/11/12 06:17:25;;;;;;;27.80;25.10;;;;;;;-128.00;-1.00;-1.00;106783;1250;1002607;-58
2023/11/12 06:19:52;;;;;;;12.50;11.40;;;;;;;-128.00;-1.00;-1.00;106973;1250;1002694;-57
2023/11/12 06:22:20;;;;;;;14.10;12.70;;;;;;;-128.00;-1.00;-1.00;106935;1250;1002888;-60
2023/11/12 06:24:48;;;;;;;15.00;13.50;;;;;;;-128.00;-1.00;-1.00;106936;1250;1002262;-59
2023/11/12 06:27:15;;;;;;;37.00;31.60;;;;;;;-128.00;-1.00;-1.00;106980;1250;1002389;-59
2023/11/12 06:29:43;;;;;;;23.60;20.90;;;;;;;-128.00;-1.00;-1.00;106969;1252;1002487;-58
2023/11/12 06:32:11;;;;;;;28.80;26.00;;;;;;;-128.00;-1.00;-1.00;106922;1250;1002564;-59
2023/11/12 06:34:38;;;;;;;15.70;14.20;;;;;;;-128.00;-1.00;-1.00;106947;1250;1001940;-59
2023/11/12 06:37:06;;;;;;;9.10;8.40;;;;;;;-128.00;-1.00;-1.00;106927;1250;1002781;-60
2023/11/12 06:39:33;;;;;;;6.20;5.60;;;;;;;-128.00;-1.00;-1.00;106983;1250;1002193;-58
2023/11/12 06:42:01;;;;;;;3.10;2.80;;;;;;;-128.00;-1.00;-1.00;106968;1251;1002774;-60
2023/11/12 06:44:29;;;;;;;2.80;2.60;;;;;;;-128.00;-1.00;-1.00;106701;1250;1002274;-58
2023/11/12 06:46:57;;;;;;;2.90;2.70;;;;;;;-128.00;-1.00;-1.00;106948;1250;1002436;-59
2023/11/12 06:49:24;;;;;;;2.50;2.30;;;;;;;-128.00;-1.00;-1.00;106865;1250;1012330;-59
2023/11/12 06:51:52;;;;;;;2.60;2.40;;;;;;;-128.00;-1.00;-1.00;106966;1250;1002209;-59
2023/11/12 06:54:20;;;;;;;11.60;5.10;;;;;;;-128.00;-1.00;-1.00;106631;1250;1002283;-58
2023/11/12 06:56:47;;;;;;;13.60;12.40;;;;;;;-128.00;-1.00;-1.00;106673;1250;1002206;-59
2023/11/12 06:59:15;;;;;;;30.60;28.20;;;;;;;-128.00;-1.00;-1.00;106950;1250;1002812;-58
2023/11/12 07:01:45;;;;;;;4.30;4.00;;;;;;;-128.00;-1.00;-1.00;106955;1256;1012520;-57
2023/11/12 07:04:13;;;;;;;7.90;7.10;;;;;;;-128.00;-1.00;-1.00;106947;1251;1012821;-58
2023/11/12 07:06:40;;;;;;;34.30;29.20;;;;;;;-128.00;-1.00;-1.00;106985;1252;1002884;-59
2023/11/12 07:09:10;;;;;;;40.10;33.90;;;;;;;-128.00;-1.00;-1.00;106631;1250;1011732;-59
2023/11/12 07:11:38;;;;;;;31.80;28.40;;;;;;;-128.00;-1.00;-1.00;106993;1250;1012682;-58
2023/11/12 07:14:05;;;;;;;8.00;6.80;;;;;;;-128.00;-1.00;-1.00;106948;1251;1003012;-59
2023/11/12 07:16:33;;;;;;;5.30;4.90;;;;;;;-128.00;-1.00;-1.00;106626;1250;1002158;-59
2023/11/12 07:19:01;;;;;;;4.00;3.70;;;;;;;-128.00;-1.00;-1.00;106963;1250;1002301;-58
2023/11/12 07:21:30;;;;;;;3.60;3.30;;;;;;;-128.00;-1.00;-1.00;106937;1250;1002455;-60
2023/11/12 07:23:57;;;;;;;3.90;3.60;;;;;;;-128.00;-1.00;-1.00;106985;1250;1012828;-58
2023/11/12 07:26:26;;;;;;;3.30;3.00;;;;;;;-128.00;-1.00;-1.00;106895;1250;1002610;-60
2023/11/12 07:28:53;;;;;;;3.60;3.20;;;;;;;-128.00;-1.00;-1.00;106995;1250;1012837;-60
2023/11/12 07:31:24;;;;;;;3.00;2.80;;;;;;;-128.00;-1.00;-1.00;106985;1251;1002100;-59
2023/11/12 07:33:52;;;;;;;2.70;2.50;;;;;;;-128.00;-1.00;-1.00;106981;1250;1011113;-57
2023/11/12 07:36:21;;;;;;;6.70;3.90;;;;;;;-128.00;-1.00;-1.00;106937;1250;1002101;-59
2023/11/12 07:38:49;;;;;;;6.20;5.20;;;;;;;-128.00;-1.00;-1.00;106930;1250;1012567;-58
2023/11/12 07:41:16;;;;;;;16.90;15.40;;;;;;;-128.00;-1.00;-1.00;106937;1250;1003060;-60
2023/11/12 07:43:44;;;;;;;16.90;14.80;;;;;;;-128.00;-1.00;-1.00;106928;1250;1002349;-60
2023/11/12 07:46:12;;;;;;;19.40;16.10;;;;;;;-128.00;-1.00;-1.00;106959;1250;1002343;-59
2023/11/12 07:48:39;;;;;;;32.10;28.20;;;;;;;-128.00;-1.00;-1.00;106938;1250;1001989;-60
2023/11/12 07:51:07;;;;;;;45.80;40.70;;;;;;;-128.00;-1.00;-1.00;106989;1250;1002316;-59
2023/11/12 07:53:36;;;;;;;15.00;13.60;;;;;;;-128.00;-1.00;-1.00;106975;1250;1002865;-60
2023/11/12 07:56:06;;;;;;;8.90;6.80;;;;;;;-128.00;-1.00;-1.00;106960;1250;1010181;-60
2023/11/12 07:58:35;;;;;;;4.30;3.90;;;;;;;-128.00;-1.00;-1.00;106650;1250;1011205;-63
2023/11/12 08:01:03;;;;;;;5.30;4.90;;;;;;;-128.00;-1.00;-1.00;106975;1250;1012936;-59
2023/11/12 08:03:34;;;;;;;3.40;3.10;;;;;;;-128.00;-1.00;-1.00;106799;1250;1013313;-62
2023/11/12 08:06:03;;;;;;;3.10;2.90;;;;;;;-128.00;-1.00;-1.00;106994;1250;1013677;-59
2023/11/12 08:08:31;;;;;;;2.70;2.50;;;;;;;-128.00;-1.00;-1.00;106657;1250;1011449;-57
2023/11/12 08:11:01;;;;;;;5.70;2.70;;;;;;;-128.00;-1.00;-1.00;106988;1251;1002159;-58
2023/11/12 08:13:28;;;;;;;4.40;4.10;;;;;;;-128.00;-1.00;-1.00;106989;1250;1012120;-59
2023/11/12 08:15:56;;;;;;;26.20;23.60;;;;;;;-128.00;-1.00;-1.00;106596;1250;1002258;-62
2023/11/12 08:18:24;;;;;;;6.20;5.70;;;;;;;-128.00;-1.00;-1.00;106524;1256;1002607;-57
2023/11/12 08:20:54;;;;;;;28.30;25.50;;;;;;;-128.00;-1.00;-1.00;106534;1256;1002204;-60
2023/11/12 08:23:22;;;;;;;12.00;10.30;;;;;;;-128.00;-1.00;-1.00;106489;1256;1011248;-59
2023/11/12 08:25:49;;;;;;;24.30;21.80;;;;;;;-128.00;-1.00;-1.00;106521;1256;1002574;-59
2023/11/12 08:28:19;;;;;;;7.70;7.10;;;;;;;-128.00;-1.00;-1.00;106480;1256;1002238;-59
2023/11/12 08:30:50;;;;;;;7.10;6.40;;;;;;;-128.00;-1.00;-1.00;106512;1255;1013051;-59
2023/11/12 08:33:18;;;;;;;5.40;4.90;;;;;;;-128.00;-1.00;-1.00;106420;1256;1002359;-58
2023/11/12 08:35:45;;;;;;;3.90;3.60;;;;;;;-128.00;-1.00;-1.00;106373;1258;1002440;-57
2023/11/12 08:38:13;;;;;;;3.40;3.10;;;;;;;-128.00;-1.00;-1.00;106507;1256;1002598;-58
2023/11/12 08:40:42;;;;;;;3.30;2.90;;;;;;;-128.00;-1.00;-1.00;106319;1258;1002428;-62
2023/11/12 08:43:10;;;;;;;12.00;4.40;;;;;;;-128.00;-1.00;-1.00;106180;1256;1013344;-57
2023/11/12 08:45:39;;;;;;;3.60;3.20;;;;;;;-128.00;-1.00;-1.00;106349;1257;1002563;-60
2023/11/12 08:48:06;;;;;;;;;;;;;;;-128.00;-1.00;-1.00;106463;1257;1010235;-58
2023/11/12 08:50:34;;;;;;;7.10;6.60;;;;;;;-128.00;-1.00;-1.00;106880;1253;1002336;-58
2023/11/12 08:53:02;;;;;;;10.00;8.90;;;;;;;-128.00;-1.00;-1.00;106866;1253;1002151;-58
2023/11/12 08:55:30;;;;;;;12.30;11.20;;;;;;;-128.00;-1.00;-1.00;106846;1253;1012895;-58
2023/11/12 08:57:57;;;;;;;23.60;21.10;;;;;;;-128.00;-1.00;-1.00;106521;1253;1002203;-59
2023/11/12 09:00:25;;;;;;;26.40;23.70;;;;;;;-128.00;-1.00;-1.00;106617;1253;1002613;-58
2023/11/12 09:02:52;;;;;;;28.30;25.50;;;;;;;-128.00;-1.00;-1.00;106890;1251;1002177;-58
2023/11/12 09:05:20;;;;;;;9.00;8.30;;;;;;;-128.00;-1.00;-1.00;106495;1254;1002723;-58
2023/11/12 09:07:47;;;;;;;4.60;4.30;;;;;;;-128.00;-1.00;-1.00;106644;1254;1001865;-59
2023/11/12 09:10:15;;;;;;;4.40;4.10;;;;;;;-128.00;-1.00;-1.00;106470;1256;1002353;-58
2023/11/12 09:12:42;;;;;;;3.50;3.30;;;;;;;-128.00;-1.00;-1.00;106506;1256;1002235;-58
2023/11/12 09:15:11;;;;;;;4.10;3.80;;;;;;;-128.00;-1.00;-1.00;106522;1255;1002512;-59
2023/11/12 09:17:38;;;;;;;4.40;4.00;;;;;;;-128.00;-1.00;-1.00;106408;1256;1013246;-59
2023/11/12 09:20:13;;;;;;;4.70;4.40;;;;;;;-128.00;-1.00;-1.00;106258;1260;1002485;-59
2023/11/12 09:22:41;;;;;;;11.10;10.20;;;;;;;-128.00;-1.00;-1.00;106464;1256;1010098;-58
2023/11/12 09:25:09;;;;;;;20.40;18.70;;;;;;;-128.00;-1.00;-1.00;106439;1257;1002466;-58
2023/11/12 09:27:38;;;;;;;17.60;16.00;;;;;;;-128.00;-1.00;-1.00;106441;1256;1013506;-63
2023/11/12 09:30:08;;;;;;;13.10;12.00;;;;;;;-128.00;-1.00;-1.00;106408;1254;1002661;-59
2023/11/12 09:32:36;;;;;;;9.20;8.50;;;;;;;-128.00;-1.00;-1.00;106358;1256;1013413;-58
2023/11/12 09:35:05;;;;;;;4.30;4.00;;;;;;;-128.00;-1.00;-1.00;106637;1254;1002447;-58
2023/11/12 09:37:33;;;;;;;3.50;3.20;;;;;;;-128.00;-1.00;-1.00;106834;1251;1010929;-57
2023/11/12 09:40:01;;;;;;;4.40;3.40;;;;;;;-128.00;-1.00;-1.00;106943;1251;1002458;-58
2023/11/12 09:42:28;;;;;;;4.10;3.80;;;;;;;-128.00;-1.00;-1.00;106915;1254;1002407;-57
2023/11/12 09:44:59;;;;;;;3.80;3.50;;;;;;;-128.00;-1.00;-1.00;106511;1256;1002284;-58
2023/11/12 09:47:54;;;;;;;3.90;2.70;;;;;;;-128.00;-1.00;-1.00;106840;1251;1010094;-58
2023/11/12 09:50:22;;;;;;;10.70;4.40;;;;;;;-128.00;-1.00;-1.00;106319;1260;1010650;-58
2023/11/12 09:52:50;;;;;;;11.50;10.50;;;;;;;-128.00;-1.00;-1.00;106333;1258;1013660;-59
2023/11/12 09:55:19;;;;;;;29.00;26.70;;;;;;;-128.00;-1.00;-1.00;106298;1260;1013234;-60
2023/11/12 09:57:48;;;;;;;45.30;37.00;;;;;;;-128.00;-1.00;-1.00;106332;1260;1013626;-60
2023/11/12 10:00:16;;;;;;;72.20;48.90;;;;;;;-128.00;-1.00;-1.00;106298;1260;1010691;-59
2023/11/12 10:02:44;;;;;;;14.00;11.40;;;;;;;-128.00;-1.00;-1.00;106204;1258;1010776;-59
2023/11/12 10:05:13;;;;;;;66.20;48.80;;;;;;;-128.00;-1.00;-1.00;106255;1260;1002646;-57
2023/11/12 10:07:41;;;;;;;15.10;13.60;;;;;;;-128.00;-1.00;-1.00;106331;1258;1012209;-59
2023/11/12 10:10:20;;;;;;;11.20;10.30;;;;;;;-128.00;-1.00;-1.00;106304;1263;1002681;-59
2023/11/12 10:12:48;;;;;;;5.50;4.90;;;;;;;-128.00;-1.00;-1.00;106268;1259;1010766;-59
2023/11/12 10:15:27;;;;;;;4.50;4.20;;;;;;;-128.00;-1.00;-1.00;106279;1259;1002127;-58
2023/11/12 10:17:55;;;;;;;3.40;3.20;;;;;;;-128.00;-1.00;-1.00;106224;1260;1013659;-58
2023/11/12 10:20:30;;;;;;;3.60;3.40;;;;;;;-128.00;-1.00;-1.00;106228;1260;1013092;-59
2023/11/12 10:22:57;;;;;;;5.40;4.90;;;;;;;-128.00;-1.00;-1.00;106285;1259;1014065;-59
2023/11/12 10:25:47;;;;;;;13.10;11.80;;;;;;;-128.00;-1.00;-1.00;106286;1260;1002749;-60
2023/11/12 10:28:15;;;;;;;11.60;10.50;;;;;;;-128.00;-1.00;-1.00;106785;1253;1010876;-64
2023/11/12 10:30:46;;;;;;;9.60;7.70;;;;;;;-128.00;-1.00;-1.00;106549;1253;1002539;-60
2023/11/12 10:33:23;;;;;;;11.80;10.70;;;;;;;-128.00;-1.00;-1.00;106322;1253;1012823;-59
2023/11/12 10:35:51;;;;;;;37.70;30.30;;;;;;;-128.00;-1.00;-1.00;106779;1253;1013459;-59
2023/11/12 10:38:19;;;;;;;71.00;48.80;;;;;;;-128.00;-1.00;-1.00;106698;1251;1002177;-59
2023/11/12 10:41:02;;;;;;;55.60;42.20;;;;;;;-128.00;-1.00;-1.00;106950;1252;1002790;-61
2023/11/12 10:43:30;;;;;;;21.10;17.70;;;;;;;-128.00;-1.00;-1.00;106915;1251;1013054;-61
2023/11/12 10:45:59;;;;;;;7.70;6.70;;;;;;;-128.00;-1.00;-1.00;106547;1260;1002356;-61
2023/11/12 10:48:33;;;;;;;8.30;7.50;;;;;;;-128.00;-1.00;-1.00;106894;1251;1012343;-61
2023/11/12 10:51:03;;;;;;;4.20;3.90;;;;;;;-128.00;-1.00;-1.00;106948;1251;1011003;-58
2023/11/12 10:53:31;;;;;;;5.30;4.90;;;;;;;-128.00;-1.00;-1.00;106902;1251;1010656;-59
2023/11/12 10:56:00;;;;;;;4.20;3.80;;;;;;;-128.00;-1.00;-1.00;106888;1254;1012505;-61
2023/11/12 10:58:30;;;;;;;4.10;3.40;;;;;;;-128.00;-1.00;-1.00;106871;1253;1014844;-60
2023/11/12 11:01:01;;;;;;;3.90;3.50;;;;;;;-128.00;-1.00;-1.00;106617;1251;1012946;-58
2023/11/12 11:03:30;;;;;;;5.20;3.30;;;;;;;-128.00;-1.00;-1.00;106848;1253;1010116;-59
2023/11/12 11:06:02;;;;;;;9.70;7.30;;;;;;;-128.00;-1.00;-1.00;106824;1252;1010963;-61
2023/11/12 11:08:30;;;;;;;41.70;37.90;;;;;;;-128.00;-1.00;-1.00;106812;1254;1013536;-59
2023/11/12 11:10:59;;;;;;;66.70;60.60;;;;;;;-128.00;-1.00;-1.00;106907;1251;1013276;-59
2023/11/12 11:13:27;;;;;;;13.00;11.40;;;;;;;-128.00;-1.00;-1.00;106972;1251;1002818;-59
2023/11/12 11:15:58;;;;;;;44.10;36.80;;;;;;;-128.00;-1.00;-1.00;106761;1251;1002002;-59